Time;durP1;ratioP1;P1;durP2;ratioP2;P2;SDS_P1;SDS_P2;PMS_P1;PMS_P2;Temp;Humidity;BMP_temperature;BMP_pressure;BME280_temperature;BME280_humidity;BME280_pressure;Samples;Min_cycle;Max_cycle;Signal;HPM_P1;HPM_P2
2022/03/08 00:02:17;;;;;;;22.17;20.60;;;;;;;-1.74;89.57;102751.03;5036352;28;20434;-44
2022/03/08 00:04:46;;;;;;;23.70;22.20;;;;;;;-1.77;89.62;102735.47;5035984;28;20435;-43
2022/03/08 00:07:14;;;;;;;22.13;20.70;;;;;;;-1.80;90.08;102740.84;5035081;28;20454;-43
2022/03/08 00:09:43;;;;;;;21.90;20.50;;;;;;;-1.83;89.99;102734.00;5035893;28;20457;-45
2022/03/08 00:12:11;;;;;;;22.60;20.90;;;;;;;-1.84;90.31;102734.91;5035624;28;20420;-43
2022/03/08 00:14:39;;;;;;;22.37;20.97;;;;;;;-1.85;89.95;102732.38;5029166;28;20455;-43
2022/03/08 00:17:06;;;;;;;21.90;20.40;;;;;;;-1.87;89.96;102734.19;5033104;28;20478;-43
2022/03/08 00:19:34;;;;;;;22.30;20.90;;;;;;;-1.88;90.17;102735.13;5033165;28;20444;-43
2022/03/08 00:22:04;;;;;;;23.17;21.77;;;;;;;-1.91;90.11;102733.47;5035549;28;21100;-43
2022/03/08 00:24:32;;;;;;;22.70;21.40;;;;;;;-1.92;90.70;102723.94;5036480;28;20553;-46
2022/03/08 00:26:59;;;;;;;22.33;20.40;;;;;;;-1.93;90.24;102722.22;5036089;28;20601;-44
2022/03/08 00:29:27;;;;;;;24.20;22.27;;;;;;;-1.96;90.34;102717.16;5035577;28;20456;-45
2022/03/08 00:31:54;;;;;;;22.27;20.97;;;;;;;-1.97;90.87;102719.84;5036725;28;20428;-46
2022/03/08 00:34:22;;;;;;;23.43;21.70;;;;;;;-1.98;90.48;102711.16;5035343;28;21197;-44
2022/03/08 00:36:50;;;;;;;21.80;20.50;;;;;;;-1.98;90.77;102708.53;5035582;28;20535;-44
2022/03/08 00:39:19;;;;;;;22.47;20.73;;;;;;;-1.98;90.55;102724.22;5034311;28;20848;-44
2022/03/08 00:41:47;;;;;;;22.50;21.00;;;;;;;-2.03;90.51;102722.72;5035284;28;20778;-43
2022/03/08 00:44:15;;;;;;;22.33;20.93;;;;;;;-2.04;90.68;102724.47;5031733;28;20429;-44
2022/03/08 00:46:42;;;;;;;23.70;22.20;;;;;;;-2.04;90.86;102713.19;5035018;28;20482;-45
2022/03/08 00:49:10;;;;;;;21.60;20.10;;;;;;;-2.06;90.72;102709.78;5034294;28;20452;-44
2022/03/08 00:51:38;;;;;;;22.90;21.30;;;;;;;-2.06;90.92;102712.41;5035048;28;20487;-44
2022/03/08 00:54:05;;;;;;;21.07;19.80;;;;;;;-2.08;90.84;102709.84;5034869;28;20487;-44
2022/03/08 00:56:34;;;;;;;22.33;20.90;;;;;;;-2.07;90.50;102716.78;5034902;28;20474;-44
2022/03/08 00:59:02;;;;;;;21.93;20.67;;;;;;;-2.10;90.59;102710.84;5034092;28;20456;-43
2022/03/08 01:01:30;;;;;;;23.00;21.80;;;;;;;-2.10;90.93;102705.59;5035255;28;20805;-44
2022/03/08 01:03:58;;;;;;;22.63;21.23;;;;;;;-2.14;90.95;102711.88;5034884;28;20436;-42
2022/03/08 01:06:26;;;;;;;20.63;19.50;;;;;;;-2.17;91.40;102701.56;5034871;28;20554;-43
2022/03/08 01:08:53;;;;;;;22.93;21.03;;;;;;;-2.19;91.09;102696.41;5034131;28;20460;-49
2022/03/08 01:11:21;;;;;;;22.47;21.07;;;;;;;-2.18;91.17;102694.66;5034765;28;20802;-46
2022/03/08 01:13:50;;;;;;;21.07;19.70;;;;;;;-2.21;91.07;102698.22;5034697;28;20568;-43
2022/03/08 01:16:18;;;;;;;22.53;21.13;;;;;;;-2.21;91.45;102698.22;5034405;28;20486;-45
2022/03/08 01:18:47;;;;;;;21.93;20.43;;;;;;;-2.23;91.34;102697.44;5033581;28;21021;-45
2022/03/08 01:21:15;;;;;;;20.87;19.57;;;;;;;-2.25;91.21;102689.69;5034443;28;20439;-45
2022/03/08 01:23:43;;;;;;;21.17;19.87;;;;;;;-2.25;91.26;102691.44;5034258;28;20462;-47
2022/03/08 01:26:11;;;;;;;22.60;21.07;;;;;;;-2.27;91.57;102690.66;5034353;28;20452;-44
2022/03/08 01:28:39;;;;;;;21.90;20.30;;;;;;;-2.28;91.65;102697.66;5033491;28;20468;-44
2022/03/08 01:31:08;;;;;;;21.50;20.07;;;;;;;-2.32;91.74;102688.25;5034193;28;20519;-43
2022/03/08 01:33:36;;;;;;;24.10;22.30;;;;;;;-2.35;91.84;102683.16;5034198;28;20476;-43
2022/03/08 01:36:04;;;;;;;20.83;19.53;;;;;;;-2.35;91.87;102683.16;5034125;28;20510;-43
2022/03/08 01:38:32;;;;;;;21.40;19.90;;;;;;;-2.38;91.68;102688.50;5033408;28;20551;-43
2022/03/08 01:41:00;;;;;;;21.00;19.80;;;;;;;-2.39;91.52;102683.38;5033990;28;20440;-45
2022/03/08 01:43:28;;;;;;;23.97;22.40;;;;;;;-2.41;91.60;102685.19;5034085;28;20526;-44
2022/03/08 01:45:55;;;;;;;22.97;21.47;;;;;;;-2.43;91.86;102693.09;5033610;28;20837;-43
2022/03/08 01:48:25;;;;;;;23.70;21.90;;;;;;;-2.44;91.87;102691.38;5033080;28;20965;-45
2022/03/08 01:50:53;;;;;;;24.70;23.30;;;;;;;-2.45;91.70;102694.91;5033959;28;20796;-43
2022/03/08 01:53:21;;;;;;;24.37;22.70;;;;;;;-2.45;92.15;102681.03;5033860;28;20441;-43
2022/03/08 01:55:50;;;;;;;23.53;21.93;;;;;;;-2.46;92.05;102684.53;5033638;28;20547;-43
2022/03/08 01:58:24;;;;;;;23.27;21.67;;;;;;;-2.47;92.28;102682.81;5033042;28;20517;-43
2022/03/08 02:00:51;;;;;;;22.77;21.47;;;;;;;-2.49;92.25;102682.91;5033510;28;20440;-45
2022/03/08 02:03:19;;;;;;;22.83;21.30;;;;;;;-2.50;92.53;102677.72;5033787;28;20447;-43
2022/03/08 02:05:49;;;;;;;24.53;22.60;;;;;;;-2.53;92.55;102683.09;5033636;28;20464;-45
2022/03/08 02:08:16;;;;;;;23.10;21.83;;;;;;;-2.55;92.66;102677.09;5033077;28;20548;-44
2022/03/08 02:10:44;;;;;;;23.70;22.30;;;;;;;-2.58;92.67;102672.00;5033557;28;20438;-43
2022/03/08 02:13:11;;;;;;;23.00;21.50;;;;;;;-2.60;92.78;102664.25;5033345;28;20472;-46
2022/03/08 02:15:39;;;;;;;23.30;21.90;;;;;;;-2.63;92.93;102655.69;5033219;28;20472;-43
2022/03/08 02:18:07;;;;;;;22.60;21.20;;;;;;;-2.66;92.84;102666.25;5032604;28;21032;-43
2022/03/08 02:20:34;;;;;;;23.17;21.60;;;;;;;-2.68;92.98;102657.63;5032667;28;20442;-43
2022/03/08 02:23:03;;;;;;;23.33;21.70;;;;;;;-2.72;93.13;102654.31;5033327;28;20436;-44
2022/03/08 02:25:31;;;;;;;23.70;22.10;;;;;;;-2.72;93.42;102656.06;5033063;28;20426;-43
2022/03/08 02:27:58;;;;;;;23.17;21.70;;;;;;;-2.74;93.57;102653.50;5032629;28;20468;-44
2022/03/08 02:30:27;;;;;;;24.03;22.63;;;;;;;-2.76;93.08;102655.34;5033435;28;20435;-46
2022/03/08 02:32:56;;;;;;;24.23;22.70;;;;;;;-2.77;93.15;102661.47;5033292;28;20523;-43
2022/03/08 02:35:25;;;;;;;25.07;23.37;;;;;;;-2.78;93.40;102659.78;5032962;28;20551;-43
2022/03/08 02:37:54;;;;;;;24.33;22.83;;;;;;;-2.80;93.22;102659.84;5032349;28;20470;-43
2022/03/08 02:40:25;;;;;;;24.50;23.03;;;;;;;-2.80;93.41;102659.00;5032824;28;21213;-43
2022/03/08 02:42:53;;;;;;;25.33;23.70;;;;;;;-2.83;93.50;102657.38;5033064;28;20449;-43
2022/03/08 02:45:22;;;;;;;24.70;22.90;;;;;;;-2.85;93.48;102651.38;5029673;28;20785;-43
2022/03/08 02:47:50;;;;;;;24.83;23.10;;;;;;;-2.86;93.68;102662.72;5031787;28;20469;-47
2022/03/08 02:50:19;;;;;;;26.20;24.00;;;;;;;-2.87;93.50;102658.38;5032814;28;20428;-43
2022/03/08 02:52:51;;;;;;;22.83;21.50;;;;;;;-2.88;93.66;102654.09;5032488;28;20523;-44
2022/03/08 02:55:21;;;;;;;22.03;20.70;;;;;;;-2.89;93.50;102648.94;5032813;28;20524;-42
2022/03/08 02:57:51;;;;;;;24.00;22.47;;;;;;;-2.91;93.98;102649.00;5032096;28;20894;-43
2022/03/08 03:00:20;;;;;;;25.03;23.23;;;;;;;-2.92;93.79;102647.31;5032500;28;20428;-43
2022/03/08 03:02:48;;;;;;;25.47;23.37;;;;;;;-2.92;93.64;102642.09;5032488;28;20888;-43
2022/03/08 03:05:16;;;;;;;23.57;22.27;;;;;;;-2.93;93.69;102645.59;5032303;28;20451;-43
2022/03/08 03:07:44;;;;;;;27.10;24.57;;;;;;;-2.95;93.72;102642.22;5031629;28;20464;-44
2022/03/08 03:10:15;;;;;;;26.47;24.50;;;;;;;-2.95;93.98;102646.56;5032444;28;20431;-43
2022/03/08 03:12:43;;;;;;;26.13;24.23;;;;;;;-2.99;93.86;102645.88;5032381;28;20531;-44
2022/03/08 03:15:14;;;;;;;25.67;24.00;;;;;;;-3.00;94.00;102645.94;5032248;28;20829;-43
2022/03/08 03:17:43;;;;;;;26.67;25.00;;;;;;;-3.03;94.14;102648.66;5031281;28;20453;-45
2022/03/08 03:20:13;;;;;;;25.60;24.07;;;;;;;-3.05;94.27;102638.31;5032428;28;20427;-45
2022/03/08 03:22:41;;;;;;;25.77;24.20;;;;;;;-3.07;94.24;102647.94;5032299;28;20439;-45
2022/03/08 03:25:10;;;;;;;25.07;23.37;;;;;;;-3.07;94.49;102652.28;5032261;28;20888;-44
2022/03/08 03:27:38;;;;;;;25.03;23.43;;;;;;;-3.09;94.52;102651.53;5031352;28;20551;-44
2022/03/08 03:30:08;;;;;;;26.23;24.30;;;;;;;-3.12;94.66;102636.00;5032018;28;20799;-44
2022/03/08 03:32:38;;;;;;;24.73;23.33;;;;;;;-3.12;94.83;102657.72;5031958;28;20440;-44
2022/03/08 03:35:08;;;;;;;25.50;23.80;;;;;;;-3.13;94.33;102648.19;5031925;28;20992;-44
2022/03/08 03:37:35;;;;;;;24.03;22.53;;;;;;;-3.13;94.55;102657.78;5031116;28;20470;-43
2022/03/08 03:40:04;;;;;;;25.40;23.80;;;;;;;-3.14;95.01;102651.72;5032178;28;20878;-43
2022/03/08 03:42:32;;;;;;;25.27;23.67;;;;;;;-3.14;94.83;102659.56;5031878;28;20428;-44
2022/03/08 03:44:59;;;;;;;25.73;24.00;;;;;;;-3.14;94.76;102664.78;5031802;28;20436;-44
2022/03/08 03:47:27;;;;;;;25.00;23.60;;;;;;;-3.15;94.64;102659.59;5031199;28;20459;-45
2022/03/08 03:49:56;;;;;;;24.97;23.30;;;;;;;-3.14;94.62;102669.13;5031977;28;20460;-43
2022/03/08 03:52:24;;;;;;;24.90;23.30;;;;;;;-3.16;94.58;102661.34;5031790;28;20427;-44
2022/03/08 03:54:51;;;;;;;23.53;21.90;;;;;;;-3.15;94.57;102663.06;5031683;28;20811;-44
2022/03/08 03:57:19;;;;;;;24.30;22.70;;;;;;;-3.15;94.48;102665.69;5030792;28;20542;-45
2022/03/08 03:59:47;;;;;;;24.17;22.57;;;;;;;-3.15;94.42;102675.25;5032055;28;20443;-47
2022/03/08 04:02:15;;;;;;;23.40;21.90;;;;;;;-3.16;94.32;102674.41;5031863;28;20428;-44
2022/03/08 04:04:42;;;;;;;24.77;23.17;;;;;;;-3.15;94.24;102667.44;5031791;28;20432;-44
2022/03/08 04:07:12;;;;;;;25.20;23.40;;;;;;;-3.16;94.23;102663.97;5031125;28;20454;-44
2022/03/08 04:09:39;;;;;;;24.30;22.60;;;;;;;-3.17;94.34;102672.72;5031555;28;20527;-46
2022/03/08 04:12:08;;;;;;;25.97;24.10;;;;;;;-3.18;94.39;102673.63;5031893;28;20443;-48
2022/03/08 04:14:36;;;;;;;23.93;22.33;;;;;;;-3.21;94.25;102663.31;5032014;28;20439;-44
2022/03/08 04:17:04;;;;;;;26.17;24.57;;;;;;;-3.23;94.00;102662.53;5031771;28;20460;-43
2022/03/08 04:19:32;;;;;;;26.70;24.97;;;;;;;-3.25;94.11;102669.56;5031188;28;20463;-43
2022/03/08 04:22:00;;;;;;;25.53;23.70;;;;;;;-3.26;93.93;102678.31;5031791;28;20428;-43
2022/03/08 04:24:29;;;;;;;25.60;23.80;;;;;;;-3.27;94.41;102678.34;5031552;28;20916;-44
2022/03/08 04:26:56;;;;;;;26.43;24.73;;;;;;;-3.27;94.42;102673.13;5031580;28;20563;-43
2022/03/08 04:29:24;;;;;;;26.47;24.77;;;;;;;-3.29;94.45;102677.56;5031053;28;20470;-43
2022/03/08 04:31:52;;;;;;;26.20;24.47;;;;;;;-3.30;94.38;102670.66;5031344;28;20467;-43
2022/03/08 04:34:19;;;;;;;25.13;23.43;;;;;;;-3.33;94.35;102668.16;5031626;28;20937;-42
2022/03/08 04:36:47;;;;;;;24.83;23.40;;;;;;;-3.34;94.33;102661.28;5031370;28;20490;-44
2022/03/08 04:39:15;;;;;;;26.87;25.00;;;;;;;-3.34;94.82;102664.69;5030885;28;20822;-44
2022/03/08 04:41:44;;;;;;;25.47;23.60;;;;;;;-3.36;94.54;102672.59;5031669;28;20436;-44
2022/03/08 04:44:11;;;;;;;26.87;24.87;;;;;;;-3.37;94.58;102681.31;5034018;28;20439;-44
2022/03/08 04:46:43;;;;;;;26.50;24.90;;;;;;;-3.39;94.58;102675.31;5035250;28;20455;-45
2022/03/08 04:49:10;;;;;;;27.50;25.70;;;;;;;-3.41;94.61;102678.91;5034394;28;20474;-46
2022/03/08 04:51:38;;;;;;;27.70;26.00;;;;;;;-3.40;94.90;102672.75;5034851;28;20435;-43
2022/03/08 04:54:06;;;;;;;28.40;26.50;;;;;;;-3.41;94.92;102677.16;5035111;28;20443;-43
2022/03/08 04:56:34;;;;;;;27.60;25.70;;;;;;;-3.40;94.81;102676.22;5034870;28;20475;-43
2022/03/08 04:59:04;;;;;;;25.73;23.87;;;;;;;-3.41;94.75;102678.91;5034157;28;20865;-47
2022/03/08 05:01:31;;;;;;;26.23;24.60;;;;;;;-3.43;95.04;102678.97;5034605;28;20526;-43
2022/03/08 05:03:59;;;;;;;25.20;23.70;;;;;;;-3.41;94.97;102686.75;5034514;28;20490;-44
2022/03/08 05:06:30;;;;;;;27.13;25.27;;;;;;;-3.43;95.24;102681.56;5034789;28;20787;-43
2022/03/08 05:08:57;;;;;;;26.93;25.23;;;;;;;-3.44;95.17;102682.50;5034045;28;20474;-45
2022/03/08 05:11:25;;;;;;;27.60;25.80;;;;;;;-3.45;95.12;102672.97;5034963;28;20523;-42
2022/03/08 05:13:53;;;;;;;26.27;24.47;;;;;;;-3.47;95.02;102679.16;5034991;28;20759;-45
2022/03/08 05:16:23;;;;;;;27.10;25.10;;;;;;;-3.50;95.47;102676.66;5034181;28;20486;-42
2022/03/08 05:18:50;;;;;;;28.67;26.67;;;;;;;-3.53;95.33;102671.56;5033707;28;20487;-43
2022/03/08 05:21:18;;;;;;;31.30;28.83;;;;;;;-3.55;95.35;102678.56;5034509;28;20442;-42
2022/03/08 05:23:46;;;;;;;33.63;31.13;;;;;;;-3.55;95.55;102681.19;5034444;28;20865;-46
2022/03/08 05:26:13;;;;;;;29.90;27.90;;;;;;;-3.55;95.50;102670.75;5034782;28;20448;-44
2022/03/08 05:28:42;;;;;;;30.80;28.50;;;;;;;-3.53;95.65;102667.19;5033846;28;20555;-44
2022/03/08 05:31:10;;;;;;;30.27;27.90;;;;;;;-3.55;95.63;102673.38;5034000;28;20523;-44
2022/03/08 05:33:39;;;;;;;29.20;27.10;;;;;;;-3.56;95.64;102675.16;5034344;28;20440;-43
2022/03/08 05:36:07;;;;;;;29.37;27.20;;;;;;;-3.56;95.73;102669.06;5033829;28;20479;-43
2022/03/08 05:38:35;;;;;;;28.87;26.87;;;;;;;-3.56;95.59;102664.72;5033477;28;20455;-44
2022/03/08 05:41:03;;;;;;;31.07;28.70;;;;;;;-3.56;95.64;102666.47;5034012;28;20439;-42
2022/03/08 05:43:30;;;;;;;30.40;27.80;;;;;;;-3.56;95.56;102671.69;5033835;28;20530;-44
2022/03/08 05:45:58;;;;;;;31.37;29.10;;;;;;;-3.56;95.40;102675.16;5030146;28;20455;-43
2022/03/08 05:48:26;;;;;;;30.30;28.33;;;;;;;-3.54;95.62;102675.06;5033145;28;20464;-43
2022/03/08 05:50:55;;;;;;;29.20;27.20;;;;;;;-3.57;95.36;102673.44;5033712;28;20455;-46
2022/03/08 05:53:22;;;;;;;28.53;26.53;;;;;;;-3.57;95.37;102678.66;5034044;28;20467;-43
2022/03/08 05:55:50;;;;;;;29.20;27.07;;;;;;;-3.54;95.47;102678.53;5032524;28;20486;-45
2022/03/08 05:58:18;;;;;;;29.80;27.80;;;;;;;-3.53;95.57;102680.25;5032980;28;20500;-46
2022/03/08 06:00:46;;;;;;;28.47;26.63;;;;;;;-3.51;95.74;102675.81;5033837;28;20440;-43
2022/03/08 06:03:14;;;;;;;30.57;28.50;;;;;;;-3.48;95.73;102667.00;5033693;28;20502;-43
2022/03/08 06:05:41;;;;;;;29.70;27.80;;;;;;;-3.44;95.86;102674.66;5033619;28;20432;-44
2022/03/08 06:08:10;;;;;;;31.50;29.43;;;;;;;-3.38;95.90;102673.56;5032868;28;20838;-42
2022/03/08 06:10:38;;;;;;;30.90;28.50;;;;;;;-3.31;95.64;102676.75;5033294;28;20431;-45
2022/03/08 06:13:06;;;;;;;31.23;29.07;;;;;;;-3.28;96.00;102685.31;5033480;28;20442;-43
2022/03/08 06:15:33;;;;;;;29.90;27.77;;;;;;;-3.11;96.57;102682.91;5033379;28;20487;-43
2022/03/08 06:18:01;;;;;;;27.97;26.33;;;;;;;-2.59;97.69;102684.19;5032510;28;20518;-43
2022/03/08 06:20:30;;;;;;;31.07;29.07;;;;;;;-2.11;97.48;102681.22;5033448;28;20432;-45
2022/03/08 06:22:58;;;;;;;30.60;28.30;;;;;;;-1.55;97.79;102677.81;5033114;28;20436;-44
2022/03/08 06:25:27;;;;;;;29.53;27.60;;;;;;;-1.10;97.78;102675.59;5033009;28;20548;-44
2022/03/08 06:27:55;;;;;;;28.30;26.40;;;;;;;-0.71;96.94;102686.72;5032649;28;20460;-48
2022/03/08 06:30:22;;;;;;;28.03;26.13;;;;;;;-0.54;96.63;102685.03;5033090;28;20432;-44
2022/03/08 06:32:50;;;;;;;29.13;27.10;;;;;;;-0.53;95.50;102676.22;5032997;28;20446;-46
2022/03/08 06:35:19;;;;;;;30.47;28.77;;;;;;;-0.51;95.74;102690.13;5032954;28;20436;-43
2022/03/08 06:37:47;;;;;;;32.30;30.30;;;;;;;-0.59;94.06;102693.97;5032057;28;20993;-43
2022/03/08 06:40:14;;;;;;;30.43;28.83;;;;;;;-0.63;93.63;102683.72;5033509;28;20442;-46
2022/03/08 06:42:44;;;;;;;31.53;29.63;;;;;;;-0.72;92.40;102681.56;5032996;28;20535;-44
2022/03/08 06:45:11;;;;;;;30.53;28.60;;;;;;;-0.80;91.83;102683.69;5032902;28;20440;-45
2022/03/08 06:47:39;;;;;;;28.60;26.90;;;;;;;-0.78;92.37;102685.34;5032016;28;20543;-44
2022/03/08 06:50:08;;;;;;;28.63;26.93;;;;;;;-0.37;92.06;102683.25;5032643;28;20428;-46
2022/03/08 06:52:35;;;;;;;27.03;25.53;;;;;;;0.08;94.17;102689.63;5032605;28;20925;-44
2022/03/08 06:55:04;;;;;;;28.67;27.07;;;;;;;0.40;94.57;102688.72;5033001;28;20471;-43
2022/03/08 06:57:31;;;;;;;29.93;28.03;;;;;;;0.65;94.01;102691.72;5031738;28;20464;-44
2022/03/08 07:00:00;;;;;;;29.47;27.67;;;;;;;0.93;94.71;102689.22;5032664;28;20809;-44
2022/03/08 07:02:28;;;;;;;28.13;26.53;;;;;;;1.13;94.52;102688.91;5032925;28;20436;-46
2022/03/08 07:04:56;;;;;;;27.67;26.17;;;;;;;1.27;94.11;102690.75;5032427;28;20432;-47
2022/03/08 07:07:23;;;;;;;27.90;26.40;;;;;;;1.37;93.50;102686.66;5031595;28;20444;-46
2022/03/08 07:09:51;;;;;;;28.67;26.83;;;;;;;1.45;92.58;102676.53;5032821;28;20871;-43
2022/03/08 07:12:18;;;;;;;30.03;28.13;;;;;;;1.52;91.73;102677.03;5032672;28;20436;-43
2022/03/08 07:14:46;;;;;;;28.60;26.90;;;;;;;1.48;89.11;102680.75;5032448;28;20859;-43
2022/03/08 07:17:15;;;;;;;28.70;27.10;;;;;;;1.46;88.84;102680.84;5031452;28;20479;-43
2022/03/08 07:19:43;;;;;;;30.20;28.50;;;;;;;1.40;88.05;102678.59;5032605;28;20804;-46
2022/03/08 07:22:10;;;;;;;31.20;29.60;;;;;;;1.40;87.52;102680.38;5032353;28;20462;-47
2022/03/08 07:24:38;;;;;;;32.20;30.30;;;;;;;1.43;87.35;102673.16;5032496;28;20438;-43
2022/03/08 07:27:08;;;;;;;33.00;30.90;;;;;;;1.49;86.86;102678.03;5032006;28;20460;-44
2022/03/08 07:29:35;;;;;;;32.13;30.23;;;;;;;1.63;87.70;102688.59;5032179;28;21008;-43
2022/03/08 07:32:04;;;;;;;31.63;29.97;;;;;;;1.87;88.06;102685.41;5032768;28;20476;-42
2022/03/08 07:34:33;;;;;;;32.33;30.40;;;;;;;2.06;87.69;102681.53;5032810;28;20543;-43
2022/03/08 07:37:00;;;;;;;31.87;29.77;;;;;;;2.34;88.92;102671.94;5031695;28;20997;-45
2022/03/08 07:39:28;;;;;;;30.70;28.83;;;;;;;2.66;90.21;102679.47;5031432;28;20468;-45
2022/03/08 07:41:56;;;;;;;31.87;30.07;;;;;;;3.03;90.77;102675.31;5032355;28;20527;-43
2022/03/08 07:44:23;;;;;;;30.07;28.47;;;;;;;3.46;91.97;102675.09;5026216;28;20445;-45
2022/03/08 07:46:52;;;;;;;28.30;26.90;;;;;;;3.81;92.71;102679.66;5026279;28;20989;-43
2022/03/08 07:49:19;;;;;;;29.87;28.10;;;;;;;4.12;92.96;102683.63;5031261;28;20492;-43
2022/03/08 07:51:50;;;;;;;29.70;28.10;;;;;;;4.30;91.09;102678.88;5031875;28;20450;-43
2022/03/08 07:54:18;;;;;;;29.90;28.07;;;;;;;4.38;89.11;102681.78;5031740;28;20585;-43
2022/03/08 07:56:46;;;;;;;30.40;28.23;;;;;;;4.38;87.10;102677.38;5031434;28;20476;-43
2022/03/08 07:59:14;;;;;;;29.27;27.43;;;;;;;4.37;85.30;102674.81;5031038;28;20912;-43
2022/03/08 08:01:42;;;;;;;29.30;27.50;;;;;;;4.32;83.43;102684.88;5031968;28;20814;-44
2022/03/08 08:04:10;;;;;;;30.80;29.00;;;;;;;4.23;80.46;102688.16;5031834;28;20440;-45
2022/03/08 08:06:38;;;;;;;29.53;27.83;;;;;;;4.07;78.62;102688.38;5031836;28;20458;-45
2022/03/08 08:09:07;;;;;;;28.57;26.97;;;;;;;3.90;76.27;102686.94;5030922;28;20468;-43
2022/03/08 08:11:34;;;;;;;28.37;26.67;;;;;;;3.88;76.63;102685.34;5031450;28;20443;-43
2022/03/08 08:14:02;;;;;;;28.27;26.60;;;;;;;3.80;75.98;102688.50;5031757;28;20539;-44
2022/03/08 08:16:29;;;;;;;26.70;25.40;;;;;;;3.84;77.00;102676.78;5031626;28;20454;-44
2022/03/08 08:18:58;;;;;;;26.43;25.13;;;;;;;3.87;76.76;102678.38;5033365;28;20472;-43
2022/03/08 08:21:26;;;;;;;27.13;25.70;;;;;;;3.84;75.89;102671.53;5036010;28;20527;-45
2022/03/08 08:23:56;;;;;;;27.57;25.87;;;;;;;3.83;75.78;102669.81;5035520;28;20436;-44
2022/03/08 08:26:25;;;;;;;29.53;27.53;;;;;;;3.93;76.36;102670.03;5035425;28;20448;-43
2022/03/08 08:28:52;;;;;;;26.30;25.00;;;;;;;4.05;77.10;102670.97;5034815;28;20547;-43
2022/03/08 08:31:20;;;;;;;24.00;22.90;;;;;;;4.19;77.19;102665.56;5035353;28;21012;-44
2022/03/08 08:33:48;;;;;;;24.60;23.20;;;;;;;4.32;76.92;102669.03;5035312;28;20475;-43
2022/03/08 08:36:15;;;;;;;24.10;22.80;;;;;;;4.44;76.29;102666.34;5035091;28;20543;-44
2022/03/08 08:38:43;;;;;;;23.53;22.33;;;;;;;4.55;76.13;102659.44;5034591;28;20547;-45
2022/03/08 08:41:11;;;;;;;23.63;22.40;;;;;;;4.70;75.98;102667.09;5035218;28;20478;-44
2022/03/08 08:43:40;;;;;;;24.97;23.50;;;;;;;4.78;75.25;102667.38;5035088;28;21025;-43
2022/03/08 08:46:08;;;;;;;21.17;20.13;;;;;;;4.89;75.01;102666.59;5015375;28;20455;-43
2022/03/08 08:48:36;;;;;;;22.57;21.23;;;;;;;5.04;75.06;102676.06;5034757;28;20463;-44
2022/03/08 08:51:05;;;;;;;23.80;22.60;;;;;;;5.18;74.13;102672.38;5034947;28;20434;-45
2022/03/08 08:53:32;;;;;;;22.83;21.53;;;;;;;5.34;74.48;102678.19;5035130;28;21033;-44
2022/03/08 08:56:00;;;;;;;23.40;22.00;;;;;;;5.55;74.48;102672.09;5034425;28;20551;-45
2022/03/08 08:58:28;;;;;;;22.57;21.37;;;;;;;5.62;72.40;102675.13;5033045;28;20842;-45
2022/03/08 09:00:57;;;;;;;21.93;20.93;;;;;;;5.75;71.54;102675.03;5033907;28;20439;-48
2022/03/08 09:03:25;;;;;;;23.87;21.90;;;;;;;5.91;72.20;102665.81;5033510;28;20447;-45
2022/03/08 09:05:53;;;;;;;22.33;21.33;;;;;;;6.00;70.28;102656.31;5033334;28;20452;-44
2022/03/08 09:08:24;;;;;;;20.97;19.90;;;;;;;6.13;70.22;102665.81;5033008;28;20464;-45
2022/03/08 09:10:52;;;;;;;21.40;20.20;;;;;;;6.22;68.28;102661.59;5033624;28;20436;-44
2022/03/08 09:13:21;;;;;;;17.07;16.27;;;;;;;6.39;68.07;102662.91;5033540;28;20527;-47
2022/03/08 09:15:49;;;;;;;16.20;15.50;;;;;;;6.52;66.94;102669.75;5033417;28;20820;-44
2022/03/08 09:18:18;;;;;;;12.60;11.90;;;;;;;6.58;65.44;102669.25;5032712;28;20515;-46
2022/03/08 09:20:46;;;;;;;12.17;11.37;;;;;;;6.74;64.96;102666.22;5033408;28;20464;-45
2022/03/08 09:23:14;;;;;;;10.20;9.60;;;;;;;6.72;59.39;102665.47;5033340;28;20463;-44
2022/03/08 09:25:41;;;;;;;8.83;8.23;;;;;;;6.86;59.77;102670.50;5033262;28;20432;-47
2022/03/08 09:28:09;;;;;;;7.90;7.13;;;;;;;6.97;58.08;102659.00;5032589;28;20455;-47
2022/03/08 09:30:37;;;;;;;8.27;7.77;;;;;;;7.11;60.12;102662.19;5033178;28;20434;-45
2022/03/08 09:33:05;;;;;;;8.40;8.00;;;;;;;7.28;58.65;102659.97;5033380;28;20527;-45
2022/03/08 09:35:34;;;;;;;7.93;7.33;;;;;;;7.35;57.30;102655.84;5033253;28;20464;-46
2022/03/08 09:38:03;;;;;;;7.73;7.23;;;;;;;7.56;58.43;102656.66;5032653;28;20480;-44
2022/03/08 09:40:31;;;;;;;6.90;6.50;;;;;;;7.64;54.85;102659.50;5032912;28;20945;-44
2022/03/08 09:42:59;;;;;;;7.40;6.57;;;;;;;7.75;55.86;102651.47;5032864;28;20873;-44
2022/03/08 09:45:26;;;;;;;6.57;6.03;;;;;;;7.91;56.50;102659.81;5032796;28;21132;-45
2022/03/08 09:47:54;;;;;;;6.20;5.83;;;;;;;8.04;56.11;102657.75;5032414;28;20482;-46
2022/03/08 09:50:22;;;;;;;5.10;4.80;;;;;;;8.05;52.20;102656.78;5032976;28;20509;-49
2022/03/08 09:52:54;;;;;;;5.07;4.87;;;;;;;8.18;53.10;102660.03;5033194;28;20436;-46
2022/03/08 09:58:04;;;;;;;5.20;4.90;;;;;;;8.42;53.36;102648.28;5081285;27;20582;-46
2022/03/08 10:00:32;;;;;;;5.23;4.90;;;;;;;8.49;52.16;102654.69;5069167;28;20427;-43
2022/03/08 10:03:01;;;;;;;8.87;5.30;;;;;;;8.56;50.61;102646.06;5069168;28;20958;-43
2022/03/08 10:05:37;;;;;;;5.10;4.80;;;;;;;8.57;49.88;102654.88;5069300;28;20434;-46
2022/03/08 10:08:13;;;;;;;5.13;4.83;;;;;;;8.65;50.06;102655.03;5068366;28;20493;-48
2022/03/08 10:10:46;;;;;;;4.80;4.43;;;;;;;8.55;48.44;102651.50;5069262;28;20855;-46
2022/03/08 10:13:25;;;;;;;4.27;4.07;;;;;;;8.66;48.16;102651.41;5068936;28;20492;-46
2022/03/08 10:16:07;;;;;;;4.60;4.20;;;;;;;8.82;49.16;102655.19;5069103;28;20471;-45
2022/03/08 10:18:37;;;;;;;5.23;4.83;;;;;;;8.95;48.99;102646.94;5068154;28;20545;-44
2022/03/08 10:21:05;;;;;;;4.80;4.40;;;;;;;9.07;48.73;102642.31;5068949;28;20419;-44
2022/03/08 10:23:50;;;;;;;5.13;4.63;;;;;;;9.17;47.53;102643.16;5068928;28;20449;-45
2022/03/08 10:26:18;;;;;;;4.57;4.37;;;;;;;9.26;48.63;102637.81;5068969;28;20452;-43
2022/03/08 10:28:49;;;;;;;5.00;4.70;;;;;;;9.40;48.96;102634.72;5068298;28;20466;-51
2022/03/08 10:31:18;;;;;;;4.50;4.20;;;;;;;9.46;47.19;102646.63;5068632;28;20460;-43
2022/03/08 10:33:47;;;;;;;4.47;4.27;;;;;;;9.49;44.86;102640.16;5068510;28;20435;-45
2022/03/08 10:36:16;;;;;;;4.30;4.10;;;;;;;9.47;43.68;102631.50;5068333;28;20851;-44
2022/03/08 10:39:08;;;;;;;4.50;4.30;;;;;;;9.60;46.75;102635.50;5067724;28;20512;-45
2022/03/08 10:41:46;;;;;;;4.50;4.20;;;;;;;9.65;44.94;102635.06;5068489;28;20407;-43
2022/03/08 10:44:15;;;;;;;4.50;4.20;;;;;;;9.71;45.57;102624.66;5068355;28;20449;-45
2022/03/08 10:46:43;;;;;;;5.57;5.07;;;;;;;9.80;45.06;102620.28;5068142;28;20824;-43
2022/03/08 10:49:12;;;;;;;5.57;4.83;;;;;;;9.91;45.94;102617.47;5067525;28;21037;-45
2022/03/08 10:51:40;;;;;;;5.00;4.60;;;;;;;9.85;43.50;102621.56;5068350;28;20430;-43
2022/03/08 10:54:12;;;;;;;5.03;4.70;;;;;;;9.89;44.51;102609.59;5068333;28;20541;-44
2022/03/08 10:56:44;;;;;;;4.17;3.97;;;;;;;9.86;43.39;102607.22;5067829;28;20474;-44
2022/03/08 10:59:15;;;;;;;5.10;4.70;;;;;;;9.90;43.29;102608.63;5067416;28;20831;-43
2022/03/08 11:01:44;;;;;;;4.53;4.20;;;;;;;9.94;43.40;102614.50;5068081;28;20426;-44
2022/03/08 11:04:20;;;;;;;4.23;3.93;;;;;;;10.06;44.55;102617.81;5067933;28;20522;-43
2022/03/08 11:06:50;;;;;;;4.27;4.07;;;;;;;10.14;44.09;102628.59;5067549;28;20449;-45
2022/03/08 11:09:19;;;;;;;5.23;4.93;;;;;;;10.15;44.07;102612.47;5054505;28;21049;-44
2022/03/08 11:11:46;;;;;;;5.00;4.60;;;;;;;10.18;43.51;102611.34;5054809;28;20520;-44
2022/03/08 11:14:14;;;;;;;4.83;4.53;;;;;;;10.22;43.97;102613.53;5054497;28;20446;-44
2022/03/08 11:16:43;;;;;;;4.80;4.50;;;;;;;10.24;42.53;102606.25;5054295;28;20573;-45
2022/03/08 11:19:12;;;;;;;4.43;4.23;;;;;;;10.21;40.02;102606.56;5053729;28;20784;-45
2022/03/08 11:21:41;;;;;;;4.43;4.23;;;;;;;10.28;43.40;102609.44;5054594;28;20435;-43
2022/03/08 11:24:09;;;;;;;4.67;4.40;;;;;;;10.31;41.72;102607.31;5054668;28;20446;-43